createdAt,value
2022-08-28T00:01:09.722Z,49.95
2022-08-28T00:03:36.925Z,50.83
2022-08-28T00:06:06.233Z,51.10
2022-08-28T00:08:33.992Z,51.50
2022-08-28T00:11:01.434Z,50.25
2022-08-28T00:13:28.526Z,50.40
2022-08-28T00:16:00.994Z,50.85
2022-08-28T00:18:31.410Z,52.22
2022-08-28T00:20:59.308Z,50.78
2022-08-28T00:23:28.414Z,51.92
2022-08-28T00:26:10.506Z,55.10
2022-08-28T00:28:38.178Z,55.10
2022-08-28T00:31:05.552Z,55.15
2022-08-28T00:33:34.889Z,53.13
2022-08-28T00:36:03.842Z,57.55
2022-08-28T00:38:32.612Z,58.63
2022-08-28T00:41:03.987Z,57.90
2022-08-28T00:43:45.472Z,58.33
2022-08-28T00:46:16.287Z,59.70
2022-08-28T00:48:43.685Z,61.75
2022-08-28T00:51:31.323Z,61.10
2022-08-28T00:54:00.126Z,62.58
2022-08-28T00:56:30.516Z,64.60
2022-08-28T00:59:03.819Z,72.88
2022-08-28T01:01:31.426Z,67.30
2022-08-28T01:03:58.792Z,68.10
2022-08-28T01:06:26.175Z,71.18
2022-08-28T01:08:54.591Z,71.10
2022-08-28T01:11:22.401Z,72.90
2022-08-28T01:13:54.573Z,72.50
2022-08-28T01:16:23.180Z,73.32
2022-08-28T01:19:00.710Z,77.63
2022-08-28T01:21:47.340Z,76.88
2022-08-28T01:24:19.683Z,75.50
2022-08-28T01:26:47.517Z,77.85
2022-08-28T01:29:16.048Z,82.82
2022-08-28T01:31:44.197Z,82.05
2022-08-28T01:34:13.207Z,81.82
2022-08-28T01:36:41.423Z,78.75
2022-08-28T01:39:13.215Z,80.75
2022-08-28T01:41:46.981Z,77.27
2022-08-28T01:44:18.386Z,78.55
2022-08-28T01:46:46.811Z,78.97
2022-08-28T01:49:14.357Z,77.90
2022-08-28T01:51:42.327Z,79.30
2022-08-28T01:54:10.937Z,78.90
2022-08-28T01:56:42.206Z,77.57
2022-08-28T01:59:11.356Z,80.18
2022-08-28T02:01:40.301Z,74.25
2022-08-28T02:04:11.692Z,79.40
2022-08-28T02:06:39.226Z,80.13
2022-08-28T02:09:13.513Z,75.72
2022-08-28T02:11:46.724Z,77.70
2022-08-28T02:14:15.839Z,75.20
2022-08-28T02:16:43.095Z,76.25
2022-08-28T02:19:12.285Z,79.00
2022-08-28T02:21:40.268Z,80.85
2022-08-28T02:24:08.822Z,79.13
2022-08-28T02:26:38.578Z,76.43
2022-08-28T02:29:08.384Z,76.20
2022-08-28T02:31:35.847Z,76.72
2022-08-28T02:34:06.097Z,74.10
2022-08-28T02:36:36.943Z,74.10
2022-08-28T02:39:04.358Z,71.05
2022-08-28T02:41:32.529Z,69.85
2022-08-28T02:44:00.235Z,65.60
2022-08-28T02:46:27.378Z,69.43
2022-08-28T02:48:56.146Z,70.93
2022-08-28T02:51:23.593Z,68.70
2022-08-28T02:53:52.189Z,67.63
2022-08-28T02:56:19.944Z,67.38
2022-08-28T02:58:47.052Z,69.80
2022-08-28T03:01:14.339Z,67.03
2022-08-28T03:03:42.399Z,64.65
2022-08-28T03:06:15.080Z,65.60
2022-08-28T03:08:43.283Z,66.93
2022-08-28T03:11:11.094Z,65.10
2022-08-28T03:13:38.806Z,63.80
2022-08-28T03:16:07.214Z,60.58
2022-08-28T03:18:34.421Z,63.63
2022-08-28T03:21:02.202Z,63.45
2022-08-28T03:23:30.322Z,63.40
2022-08-28T03:25:58.947Z,58.28
2022-08-28T03:28:30.628Z,58.55
2022-08-28T03:30:58.378Z,58.17
2022-08-28T03:33:27.720Z,57.03
2022-08-28T03:35:55.705Z,59.75
2022-08-28T03:38:25.228Z,54.35
2022-08-28T03:40:53.606Z,59.15
2022-08-28T03:43:23.820Z,55.47
2022-08-28T03:46:01.131Z,54.00
2022-08-28T03:48:32.356Z,53.88
2022-08-28T03:51:00.717Z,53.38
2022-08-28T03:53:30.032Z,55.03
2022-08-28T03:55:58.201Z,58.65
2022-08-28T03:58:26.649Z,55.08
2022-08-28T04:00:53.692Z,55.83
2022-08-28T04:03:20.900Z,54.80
2022-08-28T04:05:48.449Z,54.55
2022-08-28T04:08:18.024Z,56.20
2022-08-28T04:10:46.646Z,55.33
2022-08-28T04:13:15.078Z,56.95
2022-08-28T04:15:42.249Z,54.00
2022-08-28T04:18:11.009Z,52.17
2022-08-28T04:20:38.905Z,55.88
2022-08-28T04:23:08.552Z,56.63
2022-08-28T04:25:35.848Z,54.30
2022-08-28T04:28:03.815Z,56.10
2022-08-28T04:30:30.915Z,56.22
2022-08-28T04:32:59.625Z,56.55
2022-08-28T04:35:27.192Z,53.67
2022-08-28T04:37:57.521Z,54.63
2022-08-28T04:40:26.287Z,53.47
2022-08-28T04:42:53.465Z,55.75
2022-08-28T04:45:20.551Z,54.55
2022-08-28T04:47:47.769Z,56.65
2022-08-28T04:50:15.014Z,55.53
2022-08-28T04:52:43.621Z,56.28
2022-08-28T04:55:11.107Z,56.35
2022-08-28T04:57:38.349Z,55.08
2022-08-28T05:00:07.818Z,54.90
2022-08-28T05:02:34.918Z,54.45
2022-08-28T05:05:03.433Z,55.55
2022-08-28T05:07:31.272Z,58.70
2022-08-28T05:09:58.405Z,56.35
2022-08-28T05:12:25.654Z,54.08
2022-08-28T05:14:52.822Z,54.42
2022-08-28T05:17:19.904Z,56.17
2022-08-28T05:19:48.451Z,55.40
2022-08-28T05:22:15.899Z,57.45
2022-08-28T05:24:42.945Z,56.35
2022-08-28T05:27:10.095Z,53.47
2022-08-28T05:29:37.239Z,58.13
2022-08-28T05:32:04.924Z,55.85
2022-08-28T05:34:32.042Z,56.55
2022-08-28T05:36:59.315Z,57.28
2022-08-28T05:39:26.459Z,57.08
2022-08-28T05:41:53.596Z,58.65
2022-08-28T05:44:21.156Z,55.05
2022-08-28T05:46:49.558Z,56.53
2022-08-28T05:49:19.705Z,57.28
2022-08-28T05:51:47.710Z,52.63
2022-08-28T05:54:15.772Z,56.55
2022-08-28T05:56:45.023Z,55.47
2022-08-28T05:59:13.199Z,55.88
2022-08-28T06:01:43.731Z,52.30
2022-08-28T06:04:14.860Z,54.70
2022-08-28T06:06:42.431Z,52.90
2022-08-28T06:09:15.681Z,52.28
2022-08-28T06:11:46.178Z,49.92
2022-08-28T06:14:17.499Z,48.67
2022-08-28T06:16:49.723Z,49.92
2022-08-28T06:19:17.498Z,47.55
2022-08-28T06:21:45.047Z,49.08
2022-08-28T06:24:13.643Z,47.95
2022-08-28T06:26:41.769Z,47.38
2022-08-28T06:29:12.401Z,44.92
2022-08-28T06:31:40.569Z,43.53
2022-08-28T06:34:09.125Z,43.97
2022-08-28T06:36:39.266Z,43.08
2022-08-28T06:39:07.137Z,43.53
2022-08-28T06:41:41.056Z,42.15
2022-08-28T06:44:09.146Z,42.20
2022-08-28T06:46:36.735Z,41.45
2022-08-28T06:49:07.215Z,42.30
2022-08-28T06:51:35.418Z,43.90
2022-08-28T06:54:02.742Z,43.55
2022-08-28T06:56:29.948Z,40.17
2022-08-28T06:58:58.787Z,43.55
2022-08-28T07:01:32.669Z,43.65
2022-08-28T07:04:02.819Z,44.15
2022-08-28T07:06:36.463Z,44.28
2022-08-28T07:09:06.542Z,45.60
2022-08-28T07:11:35.686Z,43.85
2022-08-28T07:14:03.553Z,43.83
2022-08-28T07:16:33.932Z,39.78
2022-08-28T07:19:04.694Z,38.60
2022-08-28T07:21:38.299Z,35.15
2022-08-28T07:24:07.410Z,35.63
2022-08-28T07:26:35.635Z,39.70
2022-08-28T07:29:10.306Z,36.17
2022-08-28T07:31:44.875Z,38.17
2022-08-28T07:34:14.833Z,39.03
2022-08-28T07:36:43.227Z,36.75
2022-08-28T07:39:12.757Z,38.78
2022-08-28T07:41:43.114Z,36.85
2022-08-28T07:44:31.351Z,38.85
2022-08-28T07:47:04.380Z,41.55
2022-08-28T07:49:33.810Z,40.22
2022-08-28T07:52:01.649Z,36.90
2022-08-28T07:54:28.806Z,40.25
2022-08-28T07:56:56.492Z,39.45
2022-08-28T07:59:24.092Z,38.42
2022-08-28T08:01:51.955Z,39.28
2022-08-28T08:04:21.195Z,37.08
2022-08-28T08:06:48.778Z,35.30
2022-08-28T08:09:18.194Z,35.85
2022-08-28T08:11:46.629Z,33.83
2022-08-28T08:14:14.521Z,33.72
2022-08-28T08:16:44.998Z,35.95
2022-08-28T08:19:16.672Z,34.67
2022-08-28T08:21:46.481Z,35.67
2022-08-28T08:24:21.101Z,35.75
2022-08-28T08:26:56.471Z,31.90
2022-08-28T08:29:29.466Z,31.13
2022-08-28T08:32:09.427Z,30.48
2022-08-28T08:34:39.975Z,30.17
2022-08-28T08:37:08.056Z,32.22
2022-08-28T08:39:36.681Z,29.17
2022-08-28T08:42:09.153Z,29.20
2022-08-28T08:44:43.707Z,27.85
2022-08-28T08:47:14.865Z,27.08
2022-08-28T08:49:57.318Z,24.33
2022-08-28T08:52:27.499Z,24.85
2022-08-28T08:55:16.032Z,25.00
2022-08-28T08:57:46.184Z,24.85
2022-08-28T09:00:17.221Z,25.17
2022-08-28T09:02:53.357Z,24.45
2022-08-28T09:05:25.518Z,27.63
2022-08-28T09:08:01.633Z,24.65
2022-08-28T09:11:00.991Z,24.38
2022-08-28T09:13:59.404Z,24.40
2022-08-28T09:16:38.887Z,24.65
2022-08-28T09:19:10.024Z,24.85
2022-08-28T09:21:41.851Z,26.10
2022-08-28T09:24:24.124Z,28.13
2022-08-28T09:26:57.196Z,25.52
2022-08-28T09:31:56.003Z,24.48
2022-08-28T09:34:27.688Z,22.88
2022-08-28T09:36:57.306Z,25.95
2022-08-28T09:39:35.994Z,29.15
2022-08-28T09:42:44.808Z,25.27
2022-08-28T09:45:18.544Z,25.33
2022-08-28T09:47:48.994Z,25.45
2022-08-28T09:50:36.480Z,21.27
2022-08-28T09:53:10.130Z,17.75
2022-08-28T09:56:18.935Z,21.02
2022-08-28T09:58:49.853Z,20.15
2022-08-28T10:01:43.439Z,19.35
2022-08-28T10:04:19.692Z,18.42
2022-08-28T10:07:33.169Z,18.20
2022-08-28T10:10:18.090Z,16.95
2022-08-28T10:13:09.746Z,15.35
2022-08-28T10:15:43.646Z,17.33
2022-08-28T10:18:26.060Z,17.23
2022-08-28T10:23:51.914Z,18.42
2022-08-28T10:27:04.939Z,19.17
